Startpagina
METAR-TAF:

METAR-TAF

Vliegvelden :

Antwerpen, België

Internationale Luchthaven Antwerpen

breedte: 51-12N, lengte: 004-28E, hoogte: 12 m

Actueel weer

Dit bericht is 30 minuten geleden gemaakt, om 18:50 UTC
Wind 3 kt uit het oostzuidoosten
Temperatuur 22°C
Vochtigheid 46%
Druk 1015 hPa
Zicht 10 km of meer
geen wolken onder 1500 m en geen cumulonimbus

METAR: EBAW 221850Z 11003KT CAVOK 22/10 Q1015 NOSIG

Tijdstip: 21:20 (19:20 UTC)

Verwachting

Dit bericht is 2 uur en het 10 minuten geleden gemaakt, om 17:10 UTC
Verwachting geldig van 22 om 18 UTC tot 23 om 03 UTC
Wind 5 kt uit het zuidzuidwesten
Zicht 10 km of meer
geen wolken onder 1500 m en geen cumulonimbus

TAF: EBAW 221710Z 2218/2303 21005KT CAVOK

Waarnemingen en weersverwachtingen van meer dan 4000 vliegvelden (METAR en TAF).

De beschikbare stations zijn de gele en rode punten op de kaart.

Ga met uw muis naar het station om de naam te zien.

Klik dan om waarnemingen en weersverwachtingen te zien.

kaart wijzigen: klik op de groene knoppen met een zwart kruis om in te zoomen, op de groene knop met een streepje om uit te zoomen of op de groene pijlen voor aangrenzende kaarten.


METAR-TAF: